createdAt,value
2024-02-24T00:01:42.486Z,2.24
2024-02-24T00:04:14.833Z,2.23
2024-02-24T00:06:48.668Z,2.22
2024-02-24T00:09:21.599Z,2.31
2024-02-24T00:11:54.776Z,2.22
2024-02-24T00:14:28.057Z,2.21
2024-02-24T00:17:00.718Z,2.17
2024-02-24T00:19:33.461Z,2.19
2024-02-24T00:22:06.116Z,2.16
2024-02-24T00:24:38.850Z,2.14
2024-02-24T00:27:11.742Z,2.14
2024-02-24T00:29:44.954Z,2.11
2024-02-24T00:32:18.205Z,2.20
2024-02-24T00:34:50.727Z,2.12
2024-02-24T00:37:23.264Z,2.05
2024-02-24T00:39:56.795Z,2.11
2024-02-24T00:42:29.350Z,2.01
2024-02-24T00:45:01.745Z,2.00
2024-02-24T00:47:34.446Z,1.99
2024-02-24T00:50:07.195Z,1.96
2024-02-24T00:52:39.676Z,1.91
2024-02-24T00:55:12.273Z,1.88
2024-02-24T00:57:44.354Z,1.89
2024-02-24T01:00:17.344Z,1.86
2024-02-24T01:02:49.928Z,1.89
2024-02-24T01:05:22.292Z,1.85
2024-02-24T01:07:56.350Z,1.86
2024-02-24T01:10:29.051Z,1.84
2024-02-24T01:13:02.389Z,1.84
2024-02-24T01:15:35.568Z,1.87
2024-02-24T01:18:07.923Z,1.89
2024-02-24T01:20:40.346Z,1.85
2024-02-24T01:23:12.600Z,1.86
2024-02-24T01:25:47.071Z,1.86
2024-02-24T01:28:19.913Z,1.86
2024-02-24T01:30:52.532Z,1.90
2024-02-24T01:33:25.051Z,1.88
2024-02-24T01:35:57.815Z,1.87
2024-02-24T01:38:30.286Z,1.86
2024-02-24T01:41:02.800Z,1.89
2024-02-24T01:43:36.707Z,1.90
2024-02-24T01:46:12.084Z,2.10
2024-02-24T01:48:45.087Z,1.97
2024-02-24T01:51:18.333Z,1.95
2024-02-24T01:53:51.190Z,2.00
2024-02-24T01:56:26.995Z,2.00
2024-02-24T01:58:59.236Z,1.95
2024-02-24T02:01:31.986Z,1.96
2024-02-24T02:04:04.979Z,1.98
2024-02-24T02:06:38.429Z,1.97
2024-02-24T02:09:10.722Z,1.99
2024-02-24T02:11:51.725Z,1.99
2024-02-24T02:14:17.617Z,2.01
2024-02-24T02:16:50.771Z,2.07
2024-02-24T02:19:23.897Z,2.10
2024-02-24T02:21:59.510Z,2.08
2024-02-24T02:24:32.351Z,2.11
2024-02-24T02:27:06.972Z,2.11
2024-02-24T02:29:40.423Z,2.15
2024-02-24T02:32:12.896Z,2.14
2024-02-24T02:34:45.112Z,2.10
2024-02-24T02:37:17.399Z,2.09
2024-02-24T02:39:50.393Z,2.11
2024-02-24T02:42:23.020Z,2.12
2024-02-24T02:44:55.436Z,2.14
2024-02-24T02:47:28.203Z,2.14
2024-02-24T02:50:01.774Z,2.12
2024-02-24T02:52:34.250Z,2.14
2024-02-24T02:55:07.152Z,2.16
2024-02-24T02:57:39.840Z,2.12
2024-02-24T03:00:13.054Z,2.14
2024-02-24T03:02:46.014Z,2.17
2024-02-24T03:05:18.783Z,2.16
2024-02-24T03:07:50.941Z,2.19
2024-02-24T03:10:23.313Z,2.17
2024-02-24T03:12:55.836Z,2.17
2024-02-24T03:15:28.639Z,2.17
2024-02-24T03:18:01.316Z,2.14
2024-02-24T03:20:34.182Z,2.16
2024-02-24T03:23:07.876Z,2.20
2024-02-24T03:25:40.920Z,2.17
2024-02-24T03:28:13.552Z,2.16
2024-02-24T03:30:46.381Z,2.17
2024-02-24T03:33:19.532Z,2.17
2024-02-24T03:35:52.285Z,2.17
2024-02-24T03:38:24.998Z,2.20
2024-02-24T03:40:57.160Z,2.20
2024-02-24T03:43:29.480Z,2.20
2024-02-24T03:46:02.463Z,2.19
2024-02-24T03:48:35.588Z,2.20
2024-02-24T03:51:07.840Z,2.20
2024-02-24T03:53:40.086Z,2.22
2024-02-24T03:56:12.699Z,2.21
2024-02-24T03:58:45.696Z,2.23
2024-02-24T04:01:18.504Z,2.20
2024-02-24T04:03:52.833Z,2.20
2024-02-24T04:06:25.582Z,2.20
2024-02-24T04:08:57.834Z,2.22
2024-02-24T04:11:30.528Z,2.19
2024-02-24T04:14:03.103Z,2.21
2024-02-24T04:16:35.657Z,2.20
2024-02-24T04:19:08.361Z,2.22
2024-02-24T04:21:41.501Z,2.25
2024-02-24T04:24:14.295Z,2.26
2024-02-24T04:26:46.834Z,2.23
2024-02-24T04:29:19.091Z,2.20
2024-02-24T04:31:52.005Z,2.20
2024-02-24T04:34:25.121Z,2.16
2024-02-24T04:36:57.605Z,2.13
2024-02-24T04:39:30.496Z,2.14
2024-02-24T04:42:04.482Z,2.15
2024-02-24T04:44:37.580Z,2.11
2024-02-24T04:47:09.948Z,2.16
2024-02-24T04:49:43.009Z,2.15
2024-02-24T04:52:16.112Z,2.11
2024-02-24T04:54:48.498Z,2.12
2024-02-24T04:57:20.896Z,2.15
2024-02-24T04:59:53.747Z,2.17
2024-02-24T05:02:26.361Z,2.18
2024-02-24T05:04:59.083Z,2.22
2024-02-24T05:07:32.862Z,2.25
2024-02-24T05:10:22.838Z,2.27
2024-02-24T05:12:56.493Z,2.28
2024-02-24T05:15:28.900Z,2.31
2024-02-24T05:18:01.353Z,2.35
2024-02-24T05:20:34.676Z,2.35
2024-02-24T05:23:08.494Z,2.40
2024-02-24T05:25:41.493Z,2.40
2024-02-24T05:28:14.205Z,2.44
2024-02-24T05:30:48.923Z,2.48
2024-02-24T05:33:22.755Z,2.52
2024-02-24T05:35:56.150Z,2.56
2024-02-24T05:38:29.907Z,2.58
2024-02-24T05:41:03.408Z,2.58
2024-02-24T05:43:37.384Z,2.58
2024-02-24T05:46:10.746Z,2.57
2024-02-24T05:49:01.116Z,2.57
2024-02-24T05:51:34.062Z,2.56
2024-02-24T05:54:07.438Z,2.57
2024-02-24T05:56:41.852Z,2.61
2024-02-24T05:59:15.802Z,2.60
2024-02-24T06:01:48.709Z,2.60
2024-02-24T06:04:21.261Z,2.68
2024-02-24T06:06:53.677Z,2.70
2024-02-24T06:09:26.955Z,2.69
2024-02-24T06:11:59.682Z,2.71
2024-02-24T06:14:32.869Z,2.74
2024-02-24T06:17:05.283Z,2.77
2024-02-24T06:19:39.452Z,2.81
2024-02-24T06:22:12.641Z,2.79
2024-02-24T06:24:45.631Z,2.83
2024-02-24T06:27:18.263Z,2.82
2024-02-24T06:29:51.090Z,2.81
2024-02-24T06:32:24.067Z,2.80
2024-02-24T06:34:57.023Z,2.83
2024-02-24T06:37:29.416Z,2.82
2024-02-24T06:40:02.343Z,2.87
2024-02-24T06:42:34.782Z,2.91
2024-02-24T06:45:08.620Z,2.96
2024-02-24T06:47:41.672Z,3.04
2024-02-24T06:50:14.314Z,3.09
2024-02-24T06:52:47.344Z,3.16
2024-02-24T06:55:20.480Z,3.18
2024-02-24T06:57:53.458Z,3.17
2024-02-24T07:00:26.890Z,3.18
2024-02-24T07:03:00.344Z,3.22
2024-02-24T07:05:33.770Z,3.25
2024-02-24T07:08:07.273Z,3.28
2024-02-24T07:10:40.534Z,3.28
2024-02-24T07:13:12.971Z,3.30
2024-02-24T07:15:45.528Z,3.34
2024-02-24T07:18:18.685Z,3.36
2024-02-24T07:20:52.388Z,3.42
2024-02-24T07:23:25.251Z,3.40
2024-02-24T07:25:59.163Z,3.43
2024-02-24T07:28:32.656Z,3.44
2024-02-24T07:31:06.419Z,3.42
2024-02-24T07:33:39.759Z,3.51
2024-02-24T07:36:13.648Z,3.56
2024-02-24T07:38:46.607Z,3.58
2024-02-24T07:41:20.106Z,3.64
2024-02-24T07:43:53.732Z,3.66
2024-02-24T07:46:31.514Z,3.68
2024-02-24T07:49:05.252Z,3.66
2024-02-24T07:51:40.705Z,3.71
2024-02-24T07:54:14.328Z,3.68
2024-02-24T07:56:47.184Z,3.69
2024-02-24T07:59:19.731Z,3.70
2024-02-24T08:01:53.161Z,3.76
2024-02-24T08:04:25.684Z,3.74
2024-02-24T08:06:58.082Z,3.76
2024-02-24T08:09:31.651Z,3.77
2024-02-24T08:12:04.643Z,3.77
2024-02-24T08:14:40.150Z,3.77
2024-02-24T08:17:13.635Z,3.77
2024-02-24T08:19:46.782Z,3.76
2024-02-24T08:22:19.707Z,3.76
2024-02-24T08:25:10.995Z,3.78
2024-02-24T08:27:43.462Z,3.79
2024-02-24T08:30:16.971Z,3.80
2024-02-24T08:32:51.315Z,3.81
2024-02-24T08:35:25.141Z,3.85
2024-02-24T08:37:57.611Z,3.91
2024-02-24T08:40:30.158Z,3.86
2024-02-24T08:43:02.795Z,3.88
2024-02-24T08:45:35.619Z,3.81
2024-02-24T08:48:09.366Z,3.78
2024-02-24T08:50:44.046Z,3.79
2024-02-24T08:53:17.517Z,3.81
2024-02-24T08:55:50.994Z,3.90
2024-02-24T08:58:23.436Z,3.90
2024-02-24T09:00:57.810Z,3.93
2024-02-24T09:03:30.553Z,3.98
2024-02-24T09:06:03.470Z,4.03
2024-02-24T09:08:36.473Z,4.12
2024-02-24T09:11:09.848Z,4.17
2024-02-24T09:13:44.570Z,4.21
2024-02-24T09:16:19.143Z,4.31
2024-02-24T09:18:54.915Z,4.46
2024-02-24T09:21:30.098Z,4.51
2024-02-24T09:24:04.590Z,4.48
2024-02-24T09:26:38.443Z,4.44
2024-02-24T09:29:12.412Z,4.45
2024-02-24T09:31:45.811Z,4.51
2024-02-24T09:34:20.839Z,4.55
2024-02-24T09:36:55.526Z,4.61
2024-02-24T09:39:28.596Z,4.63
2024-02-24T09:42:02.425Z,4.64
2024-02-24T09:44:35.087Z,4.62
2024-02-24T09:47:10.698Z,4.63
2024-02-24T09:49:44.655Z,4.66
2024-02-24T09:52:18.487Z,4.68
2024-02-24T09:54:50.959Z,4.79
2024-02-24T09:57:27.421Z,4.87
2024-02-24T10:00:01.493Z,4.91
2024-02-24T10:02:36.177Z,4.93
2024-02-24T10:05:09.955Z,4.85
2024-02-24T10:07:43.430Z,4.83
2024-02-24T10:10:18.164Z,4.84
2024-02-24T10:13:04.038Z,4.80
2024-02-24T10:15:38.274Z,4.83
2024-02-24T10:18:09.941Z,4.88
2024-02-24T10:20:42.752Z,5.05
2024-02-24T10:23:15.524Z,4.89
2024-02-24T10:25:49.757Z,4.87
2024-02-24T10:28:22.433Z,4.80
2024-02-24T10:30:56.205Z,4.79
2024-02-24T10:33:33.313Z,4.79
2024-02-24T10:36:06.854Z,4.78
2024-02-24T10:38:48.083Z,4.75
2024-02-24T10:41:18.842Z,4.71
2024-02-24T10:44:01.754Z,4.68
2024-02-24T10:46:29.260Z,4.69
2024-02-24T10:49:04.881Z,4.63
2024-02-24T10:51:38.461Z,4.67
2024-02-24T10:54:16.601Z,4.88
2024-02-24T10:56:52.418Z,4.75
2024-02-24T10:59:30.217Z,4.75
2024-02-24T11:02:05.438Z,4.75
2024-02-24T11:04:44.040Z,4.73
2024-02-24T11:07:22.181Z,4.74
2024-02-24T11:09:56.739Z,4.77
2024-02-24T11:12:32.441Z,4.74
2024-02-24T11:15:07.246Z,4.77
2024-02-24T11:17:53.457Z,4.84
2024-02-24T11:20:45.180Z,4.86
2024-02-24T11:23:26.130Z,4.86
2024-02-24T11:26:21.495Z,4.90
2024-02-24T11:29:03.842Z,4.95
2024-02-24T11:31:38.536Z,5.01
2024-02-24T11:34:12.857Z,5.03
2024-02-24T11:36:45.785Z,4.98
2024-02-24T11:39:20.049Z,5.10
2024-02-24T11:41:57.011Z,4.94
2024-02-24T11:44:29.647Z,4.94
2024-02-24T11:47:04.168Z,4.84
2024-02-24T11:49:40.274Z,4.83
2024-02-24T11:52:12.714Z,4.80
2024-02-24T11:54:51.357Z,4.75
2024-02-24T11:57:25.204Z,4.69
2024-02-24T11:59:57.885Z,4.64
2024-02-24T12:02:30.379Z,4.55
2024-02-24T12:05:18.035Z,4.49
2024-02-24T12:07:51.065Z,4.44
2024-02-24T12:10:25.334Z,4.41
2024-02-24T12:12:57.943Z,4.37
2024-02-24T12:15:30.870Z,4.31
2024-02-24T12:18:04.091Z,4.28
2024-02-24T12:20:50.747Z,4.25
2024-02-24T12:23:25.314Z,4.24
2024-02-24T12:25:58.782Z,4.21
2024-02-24T12:28:32.523Z,4.16
2024-02-24T12:31:07.249Z,4.13
2024-02-24T12:33:44.250Z,4.08
2024-02-24T12:36:18.304Z,4.07
2024-02-24T12:38:52.638Z,4.09
2024-02-24T12:41:28.693Z,4.13
2024-02-24T12:44:04.354Z,4.15
2024-02-24T12:46:37.995Z,4.22
2024-02-24T12:49:10.900Z,4.21
2024-02-24T12:51:45.657Z,4.20
2024-02-24T12:54:17.525Z,4.19
2024-02-24T12:56:51.197Z,4.35
2024-02-24T12:59:24.930Z,4.23
2024-02-24T13:02:00.221Z,4.23
2024-02-24T13:04:33.308Z,4.16
2024-02-24T13:07:06.282Z,4.24
2024-02-24T13:09:38.943Z,4.23
2024-02-24T13:12:11.984Z,4.29
2024-02-24T13:14:44.611Z,4.26
2024-02-24T13:17:18.409Z,4.25
2024-02-24T13:19:53.080Z,4.24
2024-02-24T13:22:26.168Z,4.26
2024-02-24T13:24:58.591Z,4.25
2024-02-24T13:27:31.214Z,4.24
2024-02-24T13:30:04.938Z,4.26
2024-02-24T13:32:38.138Z,4.21
2024-02-24T13:35:11.671Z,4.26
2024-02-24T13:37:44.255Z,4.23
2024-02-24T13:40:17.573Z,4.19
2024-02-24T13:42:50.776Z,4.15
2024-02-24T13:45:23.749Z,4.16
2024-02-24T13:47:57.694Z,4.12
2024-02-24T13:50:31.074Z,4.18
2024-02-24T13:53:04.905Z,4.05
2024-02-24T13:55:38.043Z,4.01
2024-02-24T13:58:11.081Z,4.03
2024-02-24T14:00:44.888Z,4.04
2024-02-24T14:03:17.739Z,4.03
2024-02-24T14:05:50.553Z,4.00
2024-02-24T14:08:23.306Z,3.99
2024-02-24T14:10:56.451Z,3.95
2024-02-24T14:13:31.887Z,3.92
2024-02-24T14:16:05.947Z,3.94
2024-02-24T14:18:39.975Z,3.89
2024-02-24T14:21:13.726Z,3.88
2024-02-24T14:23:46.024Z,3.88
2024-02-24T14:26:19.118Z,4.05
2024-02-24T14:29:00.416Z,3.86
2024-02-24T14:31:28.270Z,3.84
2024-02-24T14:34:02.016Z,3.78
2024-02-24T14:36:35.325Z,3.78
2024-02-24T14:39:09.366Z,3.73
2024-02-24T14:41:43.185Z,3.74
2024-02-24T14:44:17.750Z,3.79
2024-02-24T14:46:58.543Z,3.72
2024-02-24T14:49:32.033Z,3.69
2024-02-24T14:52:06.871Z,3.81
2024-02-24T14:54:42.377Z,3.69
2024-02-24T14:57:13.844Z,3.68
2024-02-24T14:59:46.856Z,3.67
2024-02-24T15:02:29.887Z,3.67
2024-02-24T15:04:54.358Z,3.63
2024-02-24T15:07:27.260Z,3.61
2024-02-24T15:10:02.789Z,3.64
2024-02-24T15:12:35.995Z,3.64
2024-02-24T15:15:10.287Z,3.64
2024-02-24T15:17:42.839Z,3.61
2024-02-24T15:20:16.361Z,3.57
2024-02-24T15:22:49.816Z,3.59
2024-02-24T15:25:22.644Z,3.58
2024-02-24T15:27:56.841Z,3.58
2024-02-24T15:30:29.151Z,3.56
2024-02-24T15:33:04.607Z,3.58
2024-02-24T15:35:37.354Z,3.55
2024-02-24T15:38:10.455Z,3.57
2024-02-24T15:43:34.252Z,3.52
2024-02-24T15:46:11.419Z,3.52
2024-02-24T15:48:45.047Z,3.49
2024-02-24T15:51:18.709Z,3.45
2024-02-24T15:53:51.610Z,3.41
2024-02-24T15:56:25.116Z,3.40
2024-02-24T15:58:58.384Z,3.40
2024-02-24T16:01:31.304Z,3.38
2024-02-24T16:04:03.935Z,3.41
2024-02-24T16:06:36.294Z,3.36
2024-02-24T16:09:10.939Z,3.33
2024-02-24T16:11:44.155Z,3.29
2024-02-24T16:14:16.738Z,3.29
2024-02-24T16:16:48.981Z,3.28
2024-02-24T16:19:21.521Z,3.33
2024-02-24T16:21:54.097Z,3.31
2024-02-24T16:24:29.382Z,3.26
2024-02-24T16:27:01.680Z,3.24
2024-02-24T16:29:34.225Z,3.22
2024-02-24T16:32:09.687Z,3.22
2024-02-24T16:34:41.836Z,3.23
2024-02-24T16:37:14.146Z,3.20
2024-02-24T16:39:47.096Z,3.25
2024-02-24T16:42:20.145Z,3.22
2024-02-24T16:44:53.501Z,3.16
2024-02-24T16:47:27.882Z,3.23
2024-02-24T16:50:02.464Z,3.22
2024-02-24T16:52:35.453Z,3.16
2024-02-24T16:55:11.382Z,3.15
2024-02-24T16:57:44.107Z,3.17
2024-02-24T17:00:18.646Z,3.15
2024-02-24T17:02:51.851Z,3.10
2024-02-24T17:05:25.652Z,3.14
2024-02-24T17:08:00.122Z,3.17
2024-02-24T17:10:34.664Z,3.14
2024-02-24T17:13:11.881Z,3.12
2024-02-24T17:15:44.837Z,3.16
2024-02-24T17:18:23.909Z,3.19
2024-02-24T17:20:53.963Z,3.19
2024-02-24T17:23:27.004Z,3.18
2024-02-24T17:26:00.187Z,3.21
2024-02-24T17:28:53.285Z,3.23
2024-02-24T17:31:25.762Z,3.25
2024-02-24T17:33:58.043Z,3.34
2024-02-24T17:36:32.398Z,3.32
2024-02-24T17:39:05.235Z,3.33
2024-02-24T17:41:38.167Z,3.36
2024-02-24T17:44:12.394Z,3.35
2024-02-24T17:46:45.241Z,3.37
2024-02-24T17:49:18.530Z,3.37
2024-02-24T17:51:51.138Z,3.42
2024-02-24T17:54:24.855Z,3.44
2024-02-24T17:56:57.990Z,3.43
2024-02-24T17:59:31.015Z,3.43
2024-02-24T18:02:04.933Z,3.37
2024-02-24T18:04:40.169Z,3.37
2024-02-24T18:07:13.469Z,3.34
2024-02-24T18:09:47.879Z,3.31
2024-02-24T18:15:10.805Z,3.29
2024-02-24T18:17:43.916Z,3.29
2024-02-24T18:20:17.202Z,3.29
2024-02-24T18:22:49.475Z,3.30
2024-02-24T18:25:21.866Z,3.31
2024-02-24T18:27:54.177Z,3.28
2024-02-24T18:30:26.738Z,3.30
2024-02-24T18:32:59.320Z,3.33
2024-02-24T18:35:31.488Z,3.38
2024-02-24T18:38:04.056Z,3.39
2024-02-24T18:40:36.647Z,3.42
2024-02-24T18:43:09.397Z,3.43
2024-02-24T18:45:44.469Z,3.48
2024-02-24T18:48:17.622Z,3.47
2024-02-24T18:50:49.970Z,3.48
2024-02-24T18:53:22.656Z,3.51
2024-02-24T18:55:55.563Z,3.51
2024-02-24T18:58:31.841Z,3.55
2024-02-24T19:01:04.859Z,3.52
2024-02-24T19:03:38.761Z,3.57
2024-02-24T19:06:12.768Z,3.53
2024-02-24T19:08:46.444Z,3.58
2024-02-24T19:11:19.178Z,3.61
2024-02-24T19:13:51.511Z,3.72
2024-02-24T19:16:23.952Z,3.60
2024-02-24T19:18:56.766Z,3.58
2024-02-24T19:21:29.724Z,3.56
2024-02-24T19:24:02.096Z,3.55
2024-02-24T19:26:35.219Z,3.55
2024-02-24T19:29:15.535Z,3.57
2024-02-24T19:31:48.034Z,3.59
2024-02-24T19:34:21.097Z,3.60
2024-02-24T19:36:53.590Z,3.63
2024-02-24T19:39:26.492Z,3.62
2024-02-24T19:42:00.076Z,3.64
2024-02-24T19:44:32.915Z,3.66
2024-02-24T19:47:07.210Z,3.69
2024-02-24T19:49:38.989Z,3.68
2024-02-24T19:52:11.089Z,3.83
2024-02-24T19:54:48.206Z,3.70
2024-02-24T19:57:21.906Z,3.70
2024-02-24T19:59:55.039Z,3.69
2024-02-24T20:02:28.549Z,3.70
2024-02-24T20:05:00.203Z,3.67
2024-02-24T20:07:32.337Z,3.69
2024-02-24T20:10:04.179Z,3.70
2024-02-24T20:12:36.328Z,3.72
2024-02-24T20:15:08.441Z,3.73
2024-02-24T20:17:40.261Z,3.76
2024-02-24T20:20:12.772Z,3.78
2024-02-24T20:22:44.224Z,3.83
2024-02-24T20:25:16.263Z,3.82
2024-02-24T20:27:47.945Z,3.85
2024-02-24T20:30:22.748Z,3.90
2024-02-24T20:32:54.607Z,3.95
2024-02-24T20:35:27.935Z,3.97
2024-02-24T20:37:59.778Z,3.98
2024-02-24T20:40:31.437Z,4.00
2024-02-24T20:43:03.113Z,4.02
2024-02-24T20:45:34.669Z,4.03
2024-02-24T20:48:06.873Z,4.03
2024-02-24T20:50:39.053Z,4.02
2024-02-24T20:53:11.018Z,4.03
2024-02-24T20:55:42.800Z,4.04
2024-02-24T20:58:14.706Z,4.06
2024-02-24T21:00:47.134Z,4.13
2024-02-24T21:03:19.399Z,4.12
2024-02-24T21:05:50.980Z,4.11
2024-02-24T21:08:22.825Z,4.09
2024-02-24T21:10:54.478Z,4.07
2024-02-24T21:13:26.181Z,4.05
2024-02-24T21:15:57.974Z,4.05
2024-02-24T21:18:30.175Z,4.02
2024-02-24T21:21:02.022Z,4.03
2024-02-24T21:23:35.028Z,4.04
2024-02-24T21:26:10.353Z,4.04
2024-02-24T21:28:42.000Z,4.03
2024-02-24T21:31:13.523Z,4.06
2024-02-24T21:33:45.881Z,4.12
2024-02-24T21:36:19.090Z,4.07
2024-02-24T21:38:51.253Z,4.09
2024-02-24T21:41:23.055Z,4.07
2024-02-24T21:43:55.087Z,4.07
2024-02-24T21:46:27.688Z,4.05
2024-02-24T21:48:59.371Z,4.04
2024-02-24T21:51:30.871Z,4.04
2024-02-24T21:54:04.400Z,4.02
2024-02-24T21:56:36.232Z,4.03
2024-02-24T21:59:07.950Z,4.03
2024-02-24T22:01:39.410Z,4.05
2024-02-24T22:04:13.357Z,4.05
2024-02-24T22:06:46.195Z,4.08
2024-02-24T22:09:19.032Z,4.07
2024-02-24T22:11:51.917Z,4.08
2024-02-24T22:14:24.536Z,4.10
2024-02-24T22:16:57.319Z,4.06
2024-02-24T22:19:31.480Z,4.03
2024-02-24T22:22:03.798Z,3.97
2024-02-24T22:24:37.027Z,3.92
2024-02-24T22:27:09.816Z,3.85
2024-02-24T22:29:43.485Z,3.83
2024-02-24T22:32:16.254Z,3.76
2024-02-24T22:34:48.759Z,3.73
2024-02-24T22:37:21.689Z,3.70
2024-02-24T22:39:54.273Z,3.63
2024-02-24T22:42:27.470Z,3.61
2024-02-24T22:45:00.265Z,3.61
2024-02-24T22:47:35.067Z,3.54
2024-02-24T22:50:08.289Z,3.51
2024-02-24T22:52:40.628Z,3.51
2024-02-24T22:55:13.874Z,3.46
2024-02-24T22:57:47.630Z,3.45
2024-02-24T23:00:22.275Z,3.46
2024-02-24T23:02:54.892Z,3.37
2024-02-24T23:05:27.940Z,3.33
2024-02-24T23:08:00.143Z,3.29
2024-02-24T23:10:32.801Z,3.24
2024-02-24T23:13:05.176Z,3.21
2024-02-24T23:15:37.656Z,3.21
2024-02-24T23:18:10.219Z,3.16
2024-02-24T23:20:42.846Z,3.14
2024-02-24T23:23:17.253Z,3.12
2024-02-24T23:25:50.318Z,3.09
2024-02-24T23:28:23.107Z,3.05
2024-02-24T23:30:56.228Z,2.97
2024-02-24T23:33:28.863Z,2.96
2024-02-24T23:36:01.549Z,2.93
2024-02-24T23:38:34.133Z,2.91
2024-02-24T23:41:07.307Z,2.81
2024-02-24T23:43:40.646Z,2.77
2024-02-24T23:46:14.526Z,2.71
2024-02-24T23:48:48.127Z,2.68
2024-02-24T23:51:20.373Z,2.69
2024-02-24T23:53:53.115Z,2.60
2024-02-24T23:56:26.267Z,2.58
2024-02-24T23:58:59.061Z,2.56
